sensor_id;sensor_type;location;lat;lon;timestamp;temperature;humidity
34574;DHT22;20809;49.594;8.734;2023-08-07T00:02:13;12.00;99.90
34574;DHT22;20809;49.594;8.734;2023-08-07T00:05:14;12.00;99.90
34574;DHT22;20809;49.594;8.734;2023-08-07T00:08:17;12.00;99.90
34574;DHT22;20809;49.594;8.734;2023-08-07T00:11:17;12.00;99.90
34574;DHT22;20809;49.594;8.734;2023-08-07T00:14:18;12.00;99.90
34574;DHT22;20809;49.594;8.734;2023-08-07T00:17:19;12.00;99.90
34574;DHT22;20809;49.594;8.734;2023-08-07T00:20:19;12.00;99.90
34574;DHT22;20809;49.594;8.734;2023-08-07T00:23:20;12.00;99.90
34574;DHT22;20809;49.594;8.734;2023-08-07T00:26:21;12.00;99.90
34574;DHT22;20809;49.594;8.734;2023-08-07T00:29:21;12.00;99.90
34574;DHT22;20809;49.594;8.734;2023-08-07T00:32:22;12.00;99.90
34574;DHT22;20809;49.594;8.734;2023-08-07T00:35:22;12.00;99.90
34574;DHT22;20809;49.594;8.734;2023-08-07T00:38:24;12.00;99.90
34574;DHT22;20809;49.594;8.734;2023-08-07T00:41:26;12.00;99.90
34574;DHT22;20809;49.594;8.734;2023-08-07T00:44:28;12.00;99.90
34574;DHT22;20809;49.594;8.734;2023-08-07T00:47:29;12.00;99.90
34574;DHT22;20809;49.594;8.734;2023-08-07T00:50:32;11.90;99.90
34574;DHT22;20809;49.594;8.734;2023-08-07T00:53:38;11.90;99.90
34574;DHT22;20809;49.594;8.734;2023-08-07T00:59:09;11.90;99.90
34574;DHT22;20809;49.594;8.734;2023-08-07T01:02:13;11.90;99.90
34574;DHT22;20809;49.594;8.734;2023-08-07T01:05:15;11.90;99.90
34574;DHT22;20809;49.594;8.734;2023-08-07T01:08:17;11.80;99.90
34574;DHT22;20809;49.594;8.734;2023-08-07T01:11:49;11.80;99.90
34574;DHT22;20809;49.594;8.734;2023-08-07T01:14:55;11.80;99.90
34574;DHT22;20809;49.594;8.734;2023-08-07T01:18:00;11.70;99.90
34574;DHT22;20809;49.594;8.734;2023-08-07T01:21:03;11.80;99.90
34574;DHT22;20809;49.594;8.734;2023-08-07T01:24:05;11.80;99.90
34574;DHT22;20809;49.594;8.734;2023-08-07T01:27:30;11.70;99.90
34574;DHT22;20809;49.594;8.734;2023-08-07T01:30:34;11.70;99.90
34574;DHT22;20809;49.594;8.734;2023-08-07T01:33:59;11.70;99.90
34574;DHT22;20809;49.594;8.734;2023-08-07T01:37:03;11.70;99.90
34574;DHT22;20809;49.594;8.734;2023-08-07T01:40:10;11.70;99.90
34574;DHT22;20809;49.594;8.734;2023-08-07T01:43:13;11.70;99.90
34574;DHT22;20809;49.594;8.734;2023-08-07T01:46:16;11.70;99.90
34574;DHT22;20809;49.594;8.734;2023-08-07T01:49:17;11.70;99.90
34574;DHT22;20809;49.594;8.734;2023-08-07T01:52:20;11.70;99.90
34574;DHT22;20809;49.594;8.734;2023-08-07T01:55:23;11.70;99.90
34574;DHT22;20809;49.594;8.734;2023-08-07T01:58:25;11.60;99.90
34574;DHT22;20809;49.594;8.734;2023-08-07T02:01:27;11.70;99.90
34574;DHT22;20809;49.594;8.734;2023-08-07T02:04:29;11.70;99.90
34574;DHT22;20809;49.594;8.734;2023-08-07T02:07:31;11.70;99.90
34574;DHT22;20809;49.594;8.734;2023-08-07T02:10:33;11.60;99.90
34574;DHT22;20809;49.594;8.734;2023-08-07T02:13:35;11.70;99.90
34574;DHT22;20809;49.594;8.734;2023-08-07T02:16:37;11.60;99.90
34574;DHT22;20809;49.594;8.734;2023-08-07T02:19:38;11.70;99.90
34574;DHT22;20809;49.594;8.734;2023-08-07T02:22:40;11.70;99.90
34574;DHT22;20809;49.594;8.734;2023-08-07T02:25:42;11.70;99.90
34574;DHT22;20809;49.594;8.734;2023-08-07T02:28:46;11.70;99.90
34574;DHT22;20809;49.594;8.734;2023-08-07T02:31:48;11.70;99.90
34574;DHT22;20809;49.594;8.734;2023-08-07T02:34:50;11.70;99.90
34574;DHT22;20809;49.594;8.734;2023-08-07T02:37:52;11.70;99.90
34574;DHT22;20809;49.594;8.734;2023-08-07T02:40:54;11.70;99.90
34574;DHT22;20809;49.594;8.734;2023-08-07T02:43:56;11.70;99.90
34574;DHT22;20809;49.594;8.734;2023-08-07T02:46:58;11.70;99.90
34574;DHT22;20809;49.594;8.734;2023-08-07T02:49:59;11.80;99.90
34574;DHT22;20809;49.594;8.734;2023-08-07T02:53:02;11.70;99.90
34574;DHT22;20809;49.594;8.734;2023-08-07T02:56:04;11.70;99.90
34574;DHT22;20809;49.594;8.734;2023-08-07T02:59:06;11.70;99.90
34574;DHT22;20809;49.594;8.734;2023-08-07T03:02:07;11.80;99.90
34574;DHT22;20809;49.594;8.734;2023-08-07T03:05:12;11.70;99.90
34574;DHT22;20809;49.594;8.734;2023-08-07T03:08:14;11.70;99.90
34574;DHT22;20809;49.594;8.734;2023-08-07T03:11:15;11.70;99.90
34574;DHT22;20809;49.594;8.734;2023-08-07T03:14:17;11.70;99.90
34574;DHT22;20809;49.594;8.734;2023-08-07T03:17:19;11.60;99.90
34574;DHT22;20809;49.594;8.734;2023-08-07T03:20:21;11.60;99.90
34574;DHT22;20809;49.594;8.734;2023-08-07T03:23:23;11.50;99.90
34574;DHT22;20809;49.594;8.734;2023-08-07T03:26:26;11.50;99.90
34574;DHT22;20809;49.594;8.734;2023-08-07T03:29:28;11.50;99.90
34574;DHT22;20809;49.594;8.734;2023-08-07T03:32:29;11.40;99.90
34574;DHT22;20809;49.594;8.734;2023-08-07T03:35:31;11.40;99.90
34574;DHT22;20809;49.594;8.734;2023-08-07T03:38:33;11.40;99.90
34574;DHT22;20809;49.594;8.734;2023-08-07T03:41:34;11.40;99.90
34574;DHT22;20809;49.594;8.734;2023-08-07T03:44:36;11.40;99.90
34574;DHT22;20809;49.594;8.734;2023-08-07T03:47:38;11.40;99.90
34574;DHT22;20809;49.594;8.734;2023-08-07T03:50:40;11.40;99.90
34574;DHT22;20809;49.594;8.734;2023-08-07T03:53:42;11.40;99.90
34574;DHT22;20809;49.594;8.734;2023-08-07T03:56:43;11.40;99.90
34574;DHT22;20809;49.594;8.734;2023-08-07T03:59:44;11.50;99.90
34574;DHT22;20809;49.594;8.734;2023-08-07T04:02:46;11.40;99.90
34574;DHT22;20809;49.594;8.734;2023-08-07T04:05:47;11.40;99.90
34574;DHT22;20809;49.594;8.734;2023-08-07T04:08:51;11.40;99.90
34574;DHT22;20809;49.594;8.734;2023-08-07T04:11:53;11.30;99.90
34574;DHT22;20809;49.594;8.734;2023-08-07T04:14:55;11.30;99.90
34574;DHT22;20809;49.594;8.734;2023-08-07T04:17:56;11.30;99.90
34574;DHT22;20809;49.594;8.734;2023-08-07T04:21:04;11.30;99.90
34574;DHT22;20809;49.594;8.734;2023-08-07T04:24:05;11.30;99.90
34574;DHT22;20809;49.594;8.734;2023-08-07T04:27:11;11.40;99.90
34574;DHT22;20809;49.594;8.734;2023-08-07T04:30:12;11.40;99.90
34574;DHT22;20809;49.594;8.734;2023-08-07T04:33:13;11.40;99.90
34574;DHT22;20809;49.594;8.734;2023-08-07T04:36:14;11.40;99.90
34574;DHT22;20809;49.594;8.734;2023-08-07T04:39:15;11.40;99.90
34574;DHT22;20809;49.594;8.734;2023-08-07T04:42:15;11.40;99.90
34574;DHT22;20809;49.594;8.734;2023-08-07T04:45:16;11.30;99.90
34574;DHT22;20809;49.594;8.734;2023-08-07T04:48:17;11.30;99.90
34574;DHT22;20809;49.594;8.734;2023-08-07T04:51:18;11.30;99.90
34574;DHT22;20809;49.594;8.734;2023-08-07T04:54:18;11.30;99.90
34574;DHT22;20809;49.594;8.734;2023-08-07T04:57:19;11.30;99.90
34574;DHT22;20809;49.594;8.734;2023-08-07T05:00:21;11.30;99.90
34574;DHT22;20809;49.594;8.734;2023-08-07T05:03:22;11.30;99.90
34574;DHT22;20809;49.594;8.734;2023-08-07T05:06:22;11.40;99.90
34574;DHT22;20809;49.594;8.734;2023-08-07T05:09:23;11.40;99.90
34574;DHT22;20809;49.594;8.734;2023-08-07T05:12:24;11.40;99.90
34574;DHT22;20809;49.594;8.734;2023-08-07T05:15:26;11.40;99.90
34574;DHT22;20809;49.594;8.734;2023-08-07T05:18:28;11.40;99.90
34574;DHT22;20809;49.594;8.734;2023-08-07T05:21:29;11.50;99.90
34574;DHT22;20809;49.594;8.734;2023-08-07T05:24:30;11.50;99.90
34574;DHT22;20809;49.594;8.734;2023-08-07T05:27:36;11.50;99.90
34574;DHT22;20809;49.594;8.734;2023-08-07T05:30:36;11.50;99.90
34574;DHT22;20809;49.594;8.734;2023-08-07T05:33:37;11.50;99.90
34574;DHT22;20809;49.594;8.734;2023-08-07T05:36:37;11.50;99.90
34574;DHT22;20809;49.594;8.734;2023-08-07T05:39:39;11.60;99.90
34574;DHT22;20809;49.594;8.734;2023-08-07T05:42:40;11.60;99.90
34574;DHT22;20809;49.594;8.734;2023-08-07T05:45:42;11.60;99.90
34574;DHT22;20809;49.594;8.734;2023-08-07T05:48:45;11.60;99.90
34574;DHT22;20809;49.594;8.734;2023-08-07T05:51:46;11.60;99.90
34574;DHT22;20809;49.594;8.734;2023-08-07T05:54:46;11.60;99.90
34574;DHT22;20809;49.594;8.734;2023-08-07T05:57:48;11.70;99.90
34574;DHT22;20809;49.594;8.734;2023-08-07T06:00:53;11.70;99.90
34574;DHT22;20809;49.594;8.734;2023-08-07T06:03:54;11.70;99.90
34574;DHT22;20809;49.594;8.734;2023-08-07T06:06:54;11.80;99.90
34574;DHT22;20809;49.594;8.734;2023-08-07T06:09:56;11.90;99.90
34574;DHT22;20809;49.594;8.734;2023-08-07T06:12:57;12.00;99.90
34574;DHT22;20809;49.594;8.734;2023-08-07T06:15:57;12.10;99.90
34574;DHT22;20809;49.594;8.734;2023-08-07T06:18:58;12.00;99.90
34574;DHT22;20809;49.594;8.734;2023-08-07T06:21:59;12.00;99.90
34574;DHT22;20809;49.594;8.734;2023-08-07T06:25:00;12.00;99.90
34574;DHT22;20809;49.594;8.734;2023-08-07T06:28:00;12.00;99.90
34574;DHT22;20809;49.594;8.734;2023-08-07T06:31:02;12.10;99.90
34574;DHT22;20809;49.594;8.734;2023-08-07T06:34:03;12.10;99.90
34574;DHT22;20809;49.594;8.734;2023-08-07T06:37:05;12.00;99.90
34574;DHT22;20809;49.594;8.734;2023-08-07T06:40:06;12.10;99.90
34574;DHT22;20809;49.594;8.734;2023-08-07T06:43:07;12.10;99.90
34574;DHT22;20809;49.594;8.734;2023-08-07T06:46:07;12.10;99.90
34574;DHT22;20809;49.594;8.734;2023-08-07T06:49:08;12.10;99.90
34574;DHT22;20809;49.594;8.734;2023-08-07T06:52:08;12.00;99.90
34574;DHT22;20809;49.594;8.734;2023-08-07T06:55:09;12.00;99.90
34574;DHT22;20809;49.594;8.734;2023-08-07T06:58:10;11.90;99.90
34574;DHT22;20809;49.594;8.734;2023-08-07T07:01:11;11.90;99.90
34574;DHT22;20809;49.594;8.734;2023-08-07T07:04:11;11.80;99.90
34574;DHT22;20809;49.594;8.734;2023-08-07T07:07:12;11.80;99.90
34574;DHT22;20809;49.594;8.734;2023-08-07T07:10:13;11.80;99.90
34574;DHT22;20809;49.594;8.734;2023-08-07T07:13:14;11.80;99.90
34574;DHT22;20809;49.594;8.734;2023-08-07T07:16:14;11.80;99.90
34574;DHT22;20809;49.594;8.734;2023-08-07T07:19:15;11.90;99.90
34574;DHT22;20809;49.594;8.734;2023-08-07T07:22:16;11.90;99.90
34574;DHT22;20809;49.594;8.734;2023-08-07T07:25:17;11.90;99.90
34574;DHT22;20809;49.594;8.734;2023-08-07T07:28:18;12.00;99.90
34574;DHT22;20809;49.594;8.734;2023-08-07T07:31:18;12.00;99.90
34574;DHT22;20809;49.594;8.734;2023-08-07T07:34:19;12.00;99.90
34574;DHT22;20809;49.594;8.734;2023-08-07T07:37:20;12.00;99.90
34574;DHT22;20809;49.594;8.734;2023-08-07T07:40:20;12.10;99.90
34574;DHT22;20809;49.594;8.734;2023-08-07T07:43:21;12.10;99.90
34574;DHT22;20809;49.594;8.734;2023-08-07T07:46:22;12.20;99.90
34574;DHT22;20809;49.594;8.734;2023-08-07T07:49:24;12.20;99.90
34574;DHT22;20809;49.594;8.734;2023-08-07T07:52:24;12.20;99.90
34574;DHT22;20809;49.594;8.734;2023-08-07T07:55:25;12.20;99.90
34574;DHT22;20809;49.594;8.734;2023-08-07T07:58:26;12.20;99.90
34574;DHT22;20809;49.594;8.734;2023-08-07T08:01:27;12.20;99.90
34574;DHT22;20809;49.594;8.734;2023-08-07T08:04:28;12.30;99.90
34574;DHT22;20809;49.594;8.734;2023-08-07T08:07:32;12.30;99.90
34574;DHT22;20809;49.594;8.734;2023-08-07T08:10:35;12.40;99.90
34574;DHT22;20809;49.594;8.734;2023-08-07T08:13:36;12.40;99.90
34574;DHT22;20809;49.594;8.734;2023-08-07T08:16:39;12.40;99.90
34574;DHT22;20809;49.594;8.734;2023-08-07T08:19:40;12.40;99.90
34574;DHT22;20809;49.594;8.734;2023-08-07T08:22:41;12.50;99.90
34574;DHT22;20809;49.594;8.734;2023-08-07T08:25:41;12.70;99.90
34574;DHT22;20809;49.594;8.734;2023-08-07T08:28:42;13.00;99.90
34574;DHT22;20809;49.594;8.734;2023-08-07T08:31:42;13.30;99.90
34574;DHT22;20809;49.594;8.734;2023-08-07T08:34:43;13.30;99.90
34574;DHT22;20809;49.594;8.734;2023-08-07T08:37:44;13.20;99.90
34574;DHT22;20809;49.594;8.734;2023-08-07T08:40:45;13.20;99.90
34574;DHT22;20809;49.594;8.734;2023-08-07T08:43:46;13.20;99.90
34574;DHT22;20809;49.594;8.734;2023-08-07T08:46:49;13.30;99.90
34574;DHT22;20809;49.594;8.734;2023-08-07T08:50:01;13.30;99.90
34574;DHT22;20809;49.594;8.734;2023-08-07T08:53:05;13.30;99.90
34574;DHT22;20809;49.594;8.734;2023-08-07T08:56:06;13.40;99.90
34574;DHT22;20809;49.594;8.734;2023-08-07T08:59:07;13.30;99.90
34574;DHT22;20809;49.594;8.734;2023-08-07T09:02:08;13.30;99.90
34574;DHT22;20809;49.594;8.734;2023-08-07T09:05:09;13.40;99.90
34574;DHT22;20809;49.594;8.734;2023-08-07T09:08:10;13.50;99.90
34574;DHT22;20809;49.594;8.734;2023-08-07T09:11:12;13.50;99.90
34574;DHT22;20809;49.594;8.734;2023-08-07T09:14:16;13.50;99.90
34574;DHT22;20809;49.594;8.734;2023-08-07T09:17:18;13.60;99.90
34574;DHT22;20809;49.594;8.734;2023-08-07T09:20:19;13.60;99.90
34574;DHT22;20809;49.594;8.734;2023-08-07T09:23:20;13.70;99.90
34574;DHT22;20809;49.594;8.734;2023-08-07T09:26:22;13.70;99.90
34574;DHT22;20809;49.594;8.734;2023-08-07T09:29:27;13.90;99.90
34574;DHT22;20809;49.594;8.734;2023-08-07T09:32:28;13.90;99.90
34574;DHT22;20809;49.594;8.734;2023-08-07T09:35:30;14.00;99.90
34574;DHT22;20809;49.594;8.734;2023-08-07T09:38:34;13.90;99.90
34574;DHT22;20809;49.594;8.734;2023-08-07T09:41:35;14.00;99.90
34574;DHT22;20809;49.594;8.734;2023-08-07T09:44:39;14.10;99.90
34574;DHT22;20809;49.594;8.734;2023-08-07T09:47:39;14.30;99.90
34574;DHT22;20809;49.594;8.734;2023-08-07T09:50:45;14.40;99.90
34574;DHT22;20809;49.594;8.734;2023-08-07T09:53:47;14.50;99.90
34574;DHT22;20809;49.594;8.734;2023-08-07T09:56:47;14.50;99.90
34574;DHT22;20809;49.594;8.734;2023-08-07T09:59:49;14.60;99.90
34574;DHT22;20809;49.594;8.734;2023-08-07T10:02:50;14.50;99.90
34574;DHT22;20809;49.594;8.734;2023-08-07T10:05:51;14.50;99.90
34574;DHT22;20809;49.594;8.734;2023-08-07T10:08:52;14.50;99.90
34574;DHT22;20809;49.594;8.734;2023-08-07T10:11:54;14.50;99.90
34574;DHT22;20809;49.594;8.734;2023-08-07T10:14:55;14.40;99.90
34574;DHT22;20809;49.594;8.734;2023-08-07T10:17:56;14.40;99.90
34574;DHT22;20809;49.594;8.734;2023-08-07T10:20:57;14.50;99.90
34574;DHT22;20809;49.594;8.734;2023-08-07T10:24:00;14.60;99.90
34574;DHT22;20809;49.594;8.734;2023-08-07T10:27:04;14.50;99.90
34574;DHT22;20809;49.594;8.734;2023-08-07T10:30:11;14.50;99.90
34574;DHT22;20809;49.594;8.734;2023-08-07T10:33:15;14.60;99.90
34574;DHT22;20809;49.594;8.734;2023-08-07T10:36:19;14.60;99.90
34574;DHT22;20809;49.594;8.734;2023-08-07T10:39:19;14.50;99.90
34574;DHT22;20809;49.594;8.734;2023-08-07T10:42:20;14.30;99.90
34574;DHT22;20809;49.594;8.734;2023-08-07T10:45:22;14.20;99.90
34574;DHT22;20809;49.594;8.734;2023-08-07T10:48:23;14.10;99.90
34574;DHT22;20809;49.594;8.734;2023-08-07T10:51:29;14.10;99.90
34574;DHT22;20809;49.594;8.734;2023-08-07T10:54:37;14.10;99.90
34574;DHT22;20809;49.594;8.734;2023-08-07T10:57:42;14.20;99.90
34574;DHT22;20809;49.594;8.734;2023-08-07T11:00:44;14.40;99.90
34574;DHT22;20809;49.594;8.734;2023-08-07T11:03:45;14.40;99.90
34574;DHT22;20809;49.594;8.734;2023-08-07T11:06:49;14.20;99.90
34574;DHT22;20809;49.594;8.734;2023-08-07T11:09:50;14.20;99.90
34574;DHT22;20809;49.594;8.734;2023-08-07T11:12:51;14.40;99.90
34574;DHT22;20809;49.594;8.734;2023-08-07T11:15:51;14.60;99.90
34574;DHT22;20809;49.594;8.734;2023-08-07T11:18:53;14.80;99.90
34574;DHT22;20809;49.594;8.734;2023-08-07T11:21:54;14.90;99.90
34574;DHT22;20809;49.594;8.734;2023-08-07T11:24:56;14.90;99.90
34574;DHT22;20809;49.594;8.734;2023-08-07T11:27:57;14.90;99.90
34574;DHT22;20809;49.594;8.734;2023-08-07T11:30:58;14.80;99.90
34574;DHT22;20809;49.594;8.734;2023-08-07T11:34:00;14.80;99.90
34574;DHT22;20809;49.594;8.734;2023-08-07T11:37:03;14.70;99.90
34574;DHT22;20809;49.594;8.734;2023-08-07T11:40:04;14.60;99.90
34574;DHT22;20809;49.594;8.734;2023-08-07T11:43:05;14.60;99.90
34574;DHT22;20809;49.594;8.734;2023-08-07T11:46:10;14.50;99.90
34574;DHT22;20809;49.594;8.734;2023-08-07T11:49:12;14.40;99.90
34574;DHT22;20809;49.594;8.734;2023-08-07T11:52:12;14.30;99.90
34574;DHT22;20809;49.594;8.734;2023-08-07T11:55:14;14.30;99.90
34574;DHT22;20809;49.594;8.734;2023-08-07T11:58:15;14.30;99.90
34574;DHT22;20809;49.594;8.734;2023-08-07T12:01:23;14.40;99.90
34574;DHT22;20809;49.594;8.734;2023-08-07T12:04:24;14.30;99.90
34574;DHT22;20809;49.594;8.734;2023-08-07T12:07:25;14.30;99.90
34574;DHT22;20809;49.594;8.734;2023-08-07T12:10:27;14.30;99.90
34574;DHT22;20809;49.594;8.734;2023-08-07T12:13:28;14.40;99.90
34574;DHT22;20809;49.594;8.734;2023-08-07T12:16:32;14.40;99.90
34574;DHT22;20809;49.594;8.734;2023-08-07T12:19:37;14.40;99.90
34574;DHT22;20809;49.594;8.734;2023-08-07T12:22:38;14.30;99.90
34574;DHT22;20809;49.594;8.734;2023-08-07T12:25:39;14.30;99.90
34574;DHT22;20809;49.594;8.734;2023-08-07T12:28:39;14.50;99.90
34574;DHT22;20809;49.594;8.734;2023-08-07T12:31:40;14.60;99.90
34574;DHT22;20809;49.594;8.734;2023-08-07T12:34:41;14.70;99.90
34574;DHT22;20809;49.594;8.734;2023-08-07T12:37:41;14.90;99.90
34574;DHT22;20809;49.594;8.734;2023-08-07T12:40:42;15.00;99.90
34574;DHT22;20809;49.594;8.734;2023-08-07T12:43:42;14.90;99.90
34574;DHT22;20809;49.594;8.734;2023-08-07T12:46:43;14.90;99.90
34574;DHT22;20809;49.594;8.734;2023-08-07T12:49:44;14.90;99.90
34574;DHT22;20809;49.594;8.734;2023-08-07T12:52:46;14.80;99.90
34574;DHT22;20809;49.594;8.734;2023-08-07T12:55:47;14.80;99.90
34574;DHT22;20809;49.594;8.734;2023-08-07T12:58:47;14.80;99.90
34574;DHT22;20809;49.594;8.734;2023-08-07T13:01:48;14.70;99.90
34574;DHT22;20809;49.594;8.734;2023-08-07T13:04:48;14.80;99.90
34574;DHT22;20809;49.594;8.734;2023-08-07T13:07:49;15.00;99.90
34574;DHT22;20809;49.594;8.734;2023-08-07T13:10:50;15.30;99.90
34574;DHT22;20809;49.594;8.734;2023-08-07T13:13:51;15.70;99.90
34574;DHT22;20809;49.594;8.734;2023-08-07T13:16:51;16.20;99.90
34574;DHT22;20809;49.594;8.734;2023-08-07T13:19:52;16.70;99.90
34574;DHT22;20809;49.594;8.734;2023-08-07T13:22:52;17.10;99.90
34574;DHT22;20809;49.594;8.734;2023-08-07T13:25:53;17.40;99.90
34574;DHT22;20809;49.594;8.734;2023-08-07T13:28:54;17.70;99.90
34574;DHT22;20809;49.594;8.734;2023-08-07T13:31:55;18.20;99.90
34574;DHT22;20809;49.594;8.734;2023-08-07T13:34:59;18.60;99.90
34574;DHT22;20809;49.594;8.734;2023-08-07T13:38:00;18.90;99.90
34574;DHT22;20809;49.594;8.734;2023-08-07T13:41:05;19.00;99.90
34574;DHT22;20809;49.594;8.734;2023-08-07T13:44:05;19.10;99.90
34574;DHT22;20809;49.594;8.734;2023-08-07T13:47:06;19.30;99.90
34574;DHT22;20809;49.594;8.734;2023-08-07T13:50:10;19.80;99.90
34574;DHT22;20809;49.594;8.734;2023-08-07T13:53:13;20.10;99.90
34574;DHT22;20809;49.594;8.734;2023-08-07T13:56:13;19.90;99.90
34574;DHT22;20809;49.594;8.734;2023-08-07T13:59:14;19.40;99.90
34574;DHT22;20809;49.594;8.734;2023-08-07T14:02:15;19.50;99.90
34574;DHT22;20809;49.594;8.734;2023-08-07T14:05:15;19.70;99.90
34574;DHT22;20809;49.594;8.734;2023-08-07T14:08:16;20.00;99.90
34574;DHT22;20809;49.594;8.734;2023-08-07T14:11:17;20.20;99.90
34574;DHT22;20809;49.594;8.734;2023-08-07T14:14:17;20.40;99.90
34574;DHT22;20809;49.594;8.734;2023-08-07T14:17:18;20.90;99.90
34574;DHT22;20809;49.594;8.734;2023-08-07T14:20:19;21.30;99.90
34574;DHT22;20809;49.594;8.734;2023-08-07T14:23:19;21.70;99.90
34574;DHT22;20809;49.594;8.734;2023-08-07T14:26:20;22.00;99.90
34574;DHT22;20809;49.594;8.734;2023-08-07T14:29:21;22.00;99.90
34574;DHT22;20809;49.594;8.734;2023-08-07T14:32:22;22.00;99.90
34574;DHT22;20809;49.594;8.734;2023-08-07T14:35:23;21.80;99.90
34574;DHT22;20809;49.594;8.734;2023-08-07T14:38:23;21.50;99.90
34574;DHT22;20809;49.594;8.734;2023-08-07T14:41:24;21.30;99.90
34574;DHT22;20809;49.594;8.734;2023-08-07T14:44:25;21.30;99.90
34574;DHT22;20809;49.594;8.734;2023-08-07T14:47:26;21.40;99.90
34574;DHT22;20809;49.594;8.734;2023-08-07T14:50:26;21.60;99.90
34574;DHT22;20809;49.594;8.734;2023-08-07T14:53:29;21.70;99.90
34574;DHT22;20809;49.594;8.734;2023-08-07T14:56:30;21.80;99.90
34574;DHT22;20809;49.594;8.734;2023-08-07T14:59:31;21.60;99.90
34574;DHT22;20809;49.594;8.734;2023-08-07T15:02:31;21.30;99.90
34574;DHT22;20809;49.594;8.734;2023-08-07T15:05:32;20.90;99.90
34574;DHT22;20809;49.594;8.734;2023-08-07T15:08:33;20.80;99.90
34574;DHT22;20809;49.594;8.734;2023-08-07T15:11:33;20.80;99.90
34574;DHT22;20809;49.594;8.734;2023-08-07T15:14:34;20.80;99.90
34574;DHT22;20809;49.594;8.734;2023-08-07T15:17:35;20.80;99.90
34574;DHT22;20809;49.594;8.734;2023-08-07T15:20:36;21.00;99.90
34574;DHT22;20809;49.594;8.734;2023-08-07T15:23:37;21.10;99.90
34574;DHT22;20809;49.594;8.734;2023-08-07T15:26:37;21.20;99.90
34574;DHT22;20809;49.594;8.734;2023-08-07T15:29:39;21.20;99.90
34574;DHT22;20809;49.594;8.734;2023-08-07T15:32:42;21.10;99.90
34574;DHT22;20809;49.594;8.734;2023-08-07T15:35:43;20.90;99.90
34574;DHT22;20809;49.594;8.734;2023-08-07T15:38:44;21.10;99.90
34574;DHT22;20809;49.594;8.734;2023-08-07T15:41:45;21.20;99.90
34574;DHT22;20809;49.594;8.734;2023-08-07T15:44:46;21.10;99.90
34574;DHT22;20809;49.594;8.734;2023-08-07T15:47:49;21.00;99.90
34574;DHT22;20809;49.594;8.734;2023-08-07T15:50:50;20.90;99.90
34574;DHT22;20809;49.594;8.734;2023-08-07T15:53:51;20.80;99.90
34574;DHT22;20809;49.594;8.734;2023-08-07T15:56:51;20.70;99.90
34574;DHT22;20809;49.594;8.734;2023-08-07T15:59:52;20.70;99.90
34574;DHT22;20809;49.594;8.734;2023-08-07T16:02:53;20.60;99.90
34574;DHT22;20809;49.594;8.734;2023-08-07T16:05:53;20.60;99.90
34574;DHT22;20809;49.594;8.734;2023-08-07T16:08:54;20.40;99.90
34574;DHT22;20809;49.594;8.734;2023-08-07T16:11:57;20.10;99.90
34574;DHT22;20809;49.594;8.734;2023-08-07T16:14:57;19.90;99.90
34574;DHT22;20809;49.594;8.734;2023-08-07T16:17:59;19.90;99.90
34574;DHT22;20809;49.594;8.734;2023-08-07T16:21:02;19.90;99.90
34574;DHT22;20809;49.594;8.734;2023-08-07T16:24:03;20.20;99.90
34574;DHT22;20809;49.594;8.734;2023-08-07T16:27:05;20.80;99.90
34574;DHT22;20809;49.594;8.734;2023-08-07T16:30:06;21.00;99.90
34574;DHT22;20809;49.594;8.734;2023-08-07T16:33:07;20.80;99.90
34574;DHT22;20809;49.594;8.734;2023-08-07T16:36:07;20.50;99.90
34574;DHT22;20809;49.594;8.734;2023-08-07T16:39:08;20.30;99.90
34574;DHT22;20809;49.594;8.734;2023-08-07T16:42:09;20.40;99.90
34574;DHT22;20809;49.594;8.734;2023-08-07T16:45:10;20.80;99.90
34574;DHT22;20809;49.594;8.734;2023-08-07T16:48:10;21.10;99.90
34574;DHT22;20809;49.594;8.734;2023-08-07T16:51:11;21.60;99.90
34574;DHT22;20809;49.594;8.734;2023-08-07T16:54:12;22.40;99.90
34574;DHT22;20809;49.594;8.734;2023-08-07T16:57:13;22.40;99.90
34574;DHT22;20809;49.594;8.734;2023-08-07T17:00:15;21.90;99.90
34574;DHT22;20809;49.594;8.734;2023-08-07T17:03:15;21.20;99.90
34574;DHT22;20809;49.594;8.734;2023-08-07T17:06:16;20.50;99.90
34574;DHT22;20809;49.594;8.734;2023-08-07T17:09:17;20.20;99.90
34574;DHT22;20809;49.594;8.734;2023-08-07T17:12:19;21.10;99.90
34574;DHT22;20809;49.594;8.734;2023-08-07T17:15:20;22.20;99.90
34574;DHT22;20809;49.594;8.734;2023-08-07T17:18:20;22.60;99.90
34574;DHT22;20809;49.594;8.734;2023-08-07T17:21:21;22.20;99.90
34574;DHT22;20809;49.594;8.734;2023-08-07T17:24:22;21.60;99.90
34574;DHT22;20809;49.594;8.734;2023-08-07T17:27:23;21.30;99.90
34574;DHT22;20809;49.594;8.734;2023-08-07T17:30:23;20.70;99.90
34574;DHT22;20809;49.594;8.734;2023-08-07T17:33:24;20.10;99.90
34574;DHT22;20809;49.594;8.734;2023-08-07T17:36:25;19.50;99.90
34574;DHT22;20809;49.594;8.734;2023-08-07T17:39:27;19.30;99.90
34574;DHT22;20809;49.594;8.734;2023-08-07T17:42:28;19.30;99.90
34574;DHT22;20809;49.594;8.734;2023-08-07T17:45:29;19.30;99.90
34574;DHT22;20809;49.594;8.734;2023-08-07T17:48:30;19.30;99.90
34574;DHT22;20809;49.594;8.734;2023-08-07T17:51:31;19.40;99.90
34574;DHT22;20809;49.594;8.734;2023-08-07T17:54:32;19.40;99.90
34574;DHT22;20809;49.594;8.734;2023-08-07T17:57:32;19.30;99.90
34574;DHT22;20809;49.594;8.734;2023-08-07T18:00:33;19.10;99.90
34574;DHT22;20809;49.594;8.734;2023-08-07T18:03:34;18.80;99.90
34574;DHT22;20809;49.594;8.734;2023-08-07T18:06:34;18.60;99.90
34574;DHT22;20809;49.594;8.734;2023-08-07T18:09:35;18.30;99.90
34574;DHT22;20809;49.594;8.734;2023-08-07T18:12:36;18.20;99.90
34574;DHT22;20809;49.594;8.734;2023-08-07T18:15:38;18.00;99.90
34574;DHT22;20809;49.594;8.734;2023-08-07T18:18:39;17.90;99.90
34574;DHT22;20809;49.594;8.734;2023-08-07T18:21:40;17.80;99.90
34574;DHT22;20809;49.594;8.734;2023-08-07T18:24:41;17.70;99.90
34574;DHT22;20809;49.594;8.734;2023-08-07T18:27:43;17.60;99.90
34574;DHT22;20809;49.594;8.734;2023-08-07T18:30:43;17.40;99.90
34574;DHT22;20809;49.594;8.734;2023-08-07T18:33:44;17.30;99.90
34574;DHT22;20809;49.594;8.734;2023-08-07T18:36:45;17.20;99.90
34574;DHT22;20809;49.594;8.734;2023-08-07T18:39:47;17.10;99.90
34574;DHT22;20809;49.594;8.734;2023-08-07T18:42:51;17.00;99.90
34574;DHT22;20809;49.594;8.734;2023-08-07T18:45:54;17.00;99.90
34574;DHT22;20809;49.594;8.734;2023-08-07T18:48:56;16.90;99.90
34574;DHT22;20809;49.594;8.734;2023-08-07T18:51:58;16.80;99.90
34574;DHT22;20809;49.594;8.734;2023-08-07T18:55:01;16.70;99.90
34574;DHT22;20809;49.594;8.734;2023-08-07T18:58:03;16.60;99.90
34574;DHT22;20809;49.594;8.734;2023-08-07T19:01:06;16.50;99.90
34574;DHT22;20809;49.594;8.734;2023-08-07T19:04:11;16.50;99.90
34574;DHT22;20809;49.594;8.734;2023-08-07T19:07:13;16.40;99.90
34574;DHT22;20809;49.594;8.734;2023-08-07T19:10:15;16.30;99.90